sensor_id;sensor_type;location;lat;lon;timestamp;P1;durP1;ratioP1;P2;durP2;ratioP2
9270;SDS011;4673;53.458;9.940;2022-11-22T00:01:14;18.33;;;18.23;;
9270;SDS011;4673;53.458;9.940;2022-11-22T00:03:40;17.77;;;17.67;;
9270;SDS011;4673;53.458;9.940;2022-11-22T00:06:05;15.73;;;15.63;;
9270;SDS011;4673;53.458;9.940;2022-11-22T00:08:31;15.60;;;15.50;;
9270;SDS011;4673;53.458;9.940;2022-11-22T00:10:57;16.23;;;16.13;;
9270;SDS011;4673;53.458;9.940;2022-11-22T00:13:23;18.20;;;18.10;;
9270;SDS011;4673;53.458;9.940;2022-11-22T00:15:59;18.00;;;17.90;;
9270;SDS011;4673;53.458;9.940;2022-11-22T00:18:26;17.37;;;17.27;;
9270;SDS011;4673;53.458;9.940;2022-11-22T00:20:53;15.77;;;15.67;;
9270;SDS011;4673;53.458;9.940;2022-11-22T00:23:18;16.73;;;16.63;;
9270;SDS011;4673;53.458;9.940;2022-11-22T00:25:44;16.70;;;16.60;;
9270;SDS011;4673;53.458;9.940;2022-11-22T00:28:10;17.10;;;17.00;;
9270;SDS011;4673;53.458;9.940;2022-11-22T00:30:36;16.93;;;16.83;;
9270;SDS011;4673;53.458;9.940;2022-11-22T00:33:01;16.57;;;16.47;;
9270;SDS011;4673;53.458;9.940;2022-11-22T00:35:27;16.13;;;16.03;;
9270;SDS011;4673;53.458;9.940;2022-11-22T00:37:53;16.10;;;16.00;;
9270;SDS011;4673;53.458;9.940;2022-11-22T00:40:18;17.33;;;17.23;;
9270;SDS011;4673;53.458;9.940;2022-11-22T00:42:44;17.67;;;17.57;;
9270;SDS011;4673;53.458;9.940;2022-11-22T00:45:10;18.77;;;18.67;;
9270;SDS011;4673;53.458;9.940;2022-11-22T00:47:36;18.10;;;18.00;;
9270;SDS011;4673;53.458;9.940;2022-11-22T00:50:01;17.67;;;17.57;;
9270;SDS011;4673;53.458;9.940;2022-11-22T00:52:28;17.77;;;17.67;;
9270;SDS011;4673;53.458;9.940;2022-11-22T00:54:53;18.40;;;18.30;;
9270;SDS011;4673;53.458;9.940;2022-11-22T00:57:19;18.90;;;18.80;;
9270;SDS011;4673;53.458;9.940;2022-11-22T00:59:44;18.47;;;18.37;;
9270;SDS011;4673;53.458;9.940;2022-11-22T01:02:10;20.10;;;19.97;;
9270;SDS011;4673;53.458;9.940;2022-11-22T01:04:36;18.57;;;18.47;;
9270;SDS011;4673;53.458;9.940;2022-11-22T01:07:01;18.33;;;18.23;;
9270;SDS011;4673;53.458;9.940;2022-11-22T01:09:27;21.07;;;20.87;;
9270;SDS011;4673;53.458;9.940;2022-11-22T01:11:53;19.93;;;19.83;;
9270;SDS011;4673;53.458;9.940;2022-11-22T01:14:18;19.70;;;19.50;;
9270;SDS011;4673;53.458;9.940;2022-11-22T01:16:44;18.97;;;18.87;;
9270;SDS011;4673;53.458;9.940;2022-11-22T01:19:11;18.70;;;18.60;;
9270;SDS011;4673;53.458;9.940;2022-11-22T01:21:37;18.30;;;18.10;;
9270;SDS011;4673;53.458;9.940;2022-11-22T01:24:03;18.97;;;18.87;;
9270;SDS011;4673;53.458;9.940;2022-11-22T01:26:29;18.43;;;18.33;;
9270;SDS011;4673;53.458;9.940;2022-11-22T01:28:55;19.47;;;19.37;;
9270;SDS011;4673;53.458;9.940;2022-11-22T01:31:20;18.87;;;18.77;;
9270;SDS011;4673;53.458;9.940;2022-11-22T01:33:46;19.80;;;19.60;;
9270;SDS011;4673;53.458;9.940;2022-11-22T01:36:11;19.17;;;19.07;;
9270;SDS011;4673;53.458;9.940;2022-11-22T01:38:37;18.90;;;18.80;;
9270;SDS011;4673;53.458;9.940;2022-11-22T01:41:03;19.90;;;19.70;;
9270;SDS011;4673;53.458;9.940;2022-11-22T01:43:28;21.17;;;20.97;;
9270;SDS011;4673;53.458;9.940;2022-11-22T01:45:55;19.93;;;19.73;;
9270;SDS011;4673;53.458;9.940;2022-11-22T01:50:50;19.87;;;19.67;;
9270;SDS011;4673;53.458;9.940;2022-11-22T01:53:24;21.57;;;21.37;;
9270;SDS011;4673;53.458;9.940;2022-11-22T01:55:54;20.90;;;20.70;;
9270;SDS011;4673;53.458;9.940;2022-11-22T01:58:22;18.30;;;18.20;;
9270;SDS011;4673;53.458;9.940;2022-11-22T02:00:49;20.03;;;19.93;;
9270;SDS011;4673;53.458;9.940;2022-11-22T02:03:17;21.30;;;21.10;;
9270;SDS011;4673;53.458;9.940;2022-11-22T02:05:44;21.20;;;21.00;;
9270;SDS011;4673;53.458;9.940;2022-11-22T02:08:32;21.60;;;21.40;;
9270;SDS011;4673;53.458;9.940;2022-11-22T02:11:20;20.67;;;20.47;;
9270;SDS011;4673;53.458;9.940;2022-11-22T02:13:46;21.23;;;21.03;;
9270;SDS011;4673;53.458;9.940;2022-11-22T02:16:12;19.67;;;19.57;;
9270;SDS011;4673;53.458;9.940;2022-11-22T02:18:38;20.47;;;20.27;;
9270;SDS011;4673;53.458;9.940;2022-11-22T02:21:04;20.67;;;20.47;;
9270;SDS011;4673;53.458;9.940;2022-11-22T02:24:35;20.03;;;19.93;;
9270;SDS011;4673;53.458;9.940;2022-11-22T02:26:33;21.53;;;21.33;;
9270;SDS011;4673;53.458;9.940;2022-11-22T02:29:00;21.03;;;20.83;;
9270;SDS011;4673;53.458;9.940;2022-11-22T02:31:36;18.87;;;18.77;;
9270;SDS011;4673;53.458;9.940;2022-11-22T02:34:05;18.60;;;18.50;;
9270;SDS011;4673;53.458;9.940;2022-11-22T02:36:33;20.03;;;19.83;;
9270;SDS011;4673;53.458;9.940;2022-11-22T02:39:02;19.83;;;19.70;;
9270;SDS011;4673;53.458;9.940;2022-11-22T02:41:29;21.63;;;21.43;;
9270;SDS011;4673;53.458;9.940;2022-11-22T02:43:56;19.63;;;19.43;;
9270;SDS011;4673;53.458;9.940;2022-11-22T02:46:21;22.50;;;22.30;;
9270;SDS011;4673;53.458;9.940;2022-11-22T02:48:48;21.13;;;20.93;;
9270;SDS011;4673;53.458;9.940;2022-11-22T02:51:14;20.40;;;20.20;;
9270;SDS011;4673;53.458;9.940;2022-11-22T02:53:41;20.00;;;19.80;;
9270;SDS011;4673;53.458;9.940;2022-11-22T02:56:07;19.20;;;19.07;;
9270;SDS011;4673;53.458;9.940;2022-11-22T02:58:33;21.57;;;21.37;;
9270;SDS011;4673;53.458;9.940;2022-11-22T03:00:59;19.83;;;19.63;;
9270;SDS011;4673;53.458;9.940;2022-11-22T03:03:24;20.30;;;20.10;;
9270;SDS011;4673;53.458;9.940;2022-11-22T03:05:50;20.13;;;19.93;;
9270;SDS011;4673;53.458;9.940;2022-11-22T03:08:16;20.97;;;20.87;;
9270;SDS011;4673;53.458;9.940;2022-11-22T03:10:41;21.27;;;21.07;;
9270;SDS011;4673;53.458;9.940;2022-11-22T03:13:07;20.47;;;20.37;;
9270;SDS011;4673;53.458;9.940;2022-11-22T03:15:33;23.10;;;22.90;;
9270;SDS011;4673;53.458;9.940;2022-11-22T03:17:59;24.00;;;23.80;;
9270;SDS011;4673;53.458;9.940;2022-11-22T03:20:26;20.67;;;20.57;;
9270;SDS011;4673;53.458;9.940;2022-11-22T03:22:52;19.90;;;19.70;;
9270;SDS011;4673;53.458;9.940;2022-11-22T03:25:17;19.20;;;19.10;;
9270;SDS011;4673;53.458;9.940;2022-11-22T03:27:44;16.00;;;15.90;;
9270;SDS011;4673;53.458;9.940;2022-11-22T03:30:09;22.07;;;21.87;;
9270;SDS011;4673;53.458;9.940;2022-11-22T03:32:35;24.00;;;23.80;;
9270;SDS011;4673;53.458;9.940;2022-11-22T03:35:01;20.23;;;20.13;;
9270;SDS011;4673;53.458;9.940;2022-11-22T03:37:27;19.80;;;19.60;;
9270;SDS011;4673;53.458;9.940;2022-11-22T03:39:53;20.50;;;20.30;;
9270;SDS011;4673;53.458;9.940;2022-11-22T03:42:18;18.47;;;18.27;;
9270;SDS011;4673;53.458;9.940;2022-11-22T03:44:44;21.50;;;21.30;;
9270;SDS011;4673;53.458;9.940;2022-11-22T03:47:10;19.47;;;19.37;;
9270;SDS011;4673;53.458;9.940;2022-11-22T03:49:35;20.03;;;19.83;;
9270;SDS011;4673;53.458;9.940;2022-11-22T03:52:01;22.50;;;22.30;;
9270;SDS011;4673;53.458;9.940;2022-11-22T03:54:27;21.87;;;21.67;;
9270;SDS011;4673;53.458;9.940;2022-11-22T03:56:53;19.27;;;19.07;;
9270;SDS011;4673;53.458;9.940;2022-11-22T03:59:18;20.27;;;20.17;;
9270;SDS011;4673;53.458;9.940;2022-11-22T04:01:44;20.67;;;20.53;;
9270;SDS011;4673;53.458;9.940;2022-11-22T04:04:10;21.17;;;21.00;;
9270;SDS011;4673;53.458;9.940;2022-11-22T04:06:35;21.90;;;21.70;;
9270;SDS011;4673;53.458;9.940;2022-11-22T04:09:02;22.23;;;22.03;;
9270;SDS011;4673;53.458;9.940;2022-11-22T04:11:28;23.07;;;22.87;;
9270;SDS011;4673;53.458;9.940;2022-11-22T04:13:54;20.40;;;20.20;;
9270;SDS011;4673;53.458;9.940;2022-11-22T04:16:40;20.93;;;20.73;;
9270;SDS011;4673;53.458;9.940;2022-11-22T04:19:06;22.77;;;22.57;;
9270;SDS011;4673;53.458;9.940;2022-11-22T04:21:31;19.10;;;19.00;;
9270;SDS011;4673;53.458;9.940;2022-11-22T04:24:07;21.43;;;21.23;;
9270;SDS011;4673;53.458;9.940;2022-11-22T04:26:52;21.33;;;21.20;;
9270;SDS011;4673;53.458;9.940;2022-11-22T04:29:18;19.37;;;19.27;;
9270;SDS011;4673;53.458;9.940;2022-11-22T04:31:45;21.43;;;21.23;;
9270;SDS011;4673;53.458;9.940;2022-11-22T04:34:30;21.77;;;21.57;;
9270;SDS011;4673;53.458;9.940;2022-11-22T04:36:56;19.93;;;19.83;;
9270;SDS011;4673;53.458;9.940;2022-11-22T04:39:21;19.77;;;19.67;;
9270;SDS011;4673;53.458;9.940;2022-11-22T04:41:47;20.60;;;20.40;;
9270;SDS011;4673;53.458;9.940;2022-11-22T04:44:35;18.73;;;18.63;;
9270;SDS011;4673;53.458;9.940;2022-11-22T04:47:07;19.57;;;19.40;;
9270;SDS011;4673;53.458;9.940;2022-11-22T04:49:33;19.53;;;19.33;;
9270;SDS011;4673;53.458;9.940;2022-11-22T04:51:59;20.60;;;20.40;;
9270;SDS011;4673;53.458;9.940;2022-11-22T04:54:43;20.77;;;20.57;;
9270;SDS011;4673;53.458;9.940;2022-11-22T04:57:09;19.47;;;19.37;;
9270;SDS011;4673;53.458;9.940;2022-11-22T04:59:35;19.77;;;19.57;;
9270;SDS011;4673;53.458;9.940;2022-11-22T05:02:00;20.43;;;20.23;;
9270;SDS011;4673;53.458;9.940;2022-11-22T05:04:26;18.90;;;18.80;;
9270;SDS011;4673;53.458;9.940;2022-11-22T05:06:52;20.03;;;19.93;;
9270;SDS011;4673;53.458;9.940;2022-11-22T05:09:17;18.50;;;18.40;;
9270;SDS011;4673;53.458;9.940;2022-11-22T05:11:43;18.27;;;18.17;;
9270;SDS011;4673;53.458;9.940;2022-11-22T05:14:09;18.33;;;18.23;;
9270;SDS011;4673;53.458;9.940;2022-11-22T05:16:35;18.87;;;18.77;;
9270;SDS011;4673;53.458;9.940;2022-11-22T05:19:00;18.67;;;18.57;;
9270;SDS011;4673;53.458;9.940;2022-11-22T05:21:27;18.40;;;18.30;;
9270;SDS011;4673;53.458;9.940;2022-11-22T05:23:53;18.63;;;18.53;;
9270;SDS011;4673;53.458;9.940;2022-11-22T05:26:23;20.07;;;19.97;;
9270;SDS011;4673;53.458;9.940;2022-11-22T05:28:48;17.20;;;17.10;;
9270;SDS011;4673;53.458;9.940;2022-11-22T05:31:15;18.97;;;18.87;;
9270;SDS011;4673;53.458;9.940;2022-11-22T05:33:49;18.80;;;18.70;;
9270;SDS011;4673;53.458;9.940;2022-11-22T05:36:16;17.60;;;17.50;;
9270;SDS011;4673;53.458;9.940;2022-11-22T05:38:42;19.07;;;18.97;;
9270;SDS011;4673;53.458;9.940;2022-11-22T05:41:09;16.90;;;16.80;;
9270;SDS011;4673;53.458;9.940;2022-11-22T05:43:37;16.83;;;16.73;;
9270;SDS011;4673;53.458;9.940;2022-11-22T05:46:16;18.27;;;18.17;;
9270;SDS011;4673;53.458;9.940;2022-11-22T05:48:44;17.73;;;17.63;;
9270;SDS011;4673;53.458;9.940;2022-11-22T05:51:11;18.33;;;18.23;;
9270;SDS011;4673;53.458;9.940;2022-11-22T05:53:39;19.77;;;19.67;;
9270;SDS011;4673;53.458;9.940;2022-11-22T05:56:08;19.00;;;18.90;;
9270;SDS011;4673;53.458;9.940;2022-11-22T05:58:35;18.50;;;18.40;;
9270;SDS011;4673;53.458;9.940;2022-11-22T06:01:12;18.70;;;18.60;;
9270;SDS011;4673;53.458;9.940;2022-11-22T06:03:40;16.90;;;16.80;;
9270;SDS011;4673;53.458;9.940;2022-11-22T06:06:06;15.20;;;15.10;;
9270;SDS011;4673;53.458;9.940;2022-11-22T06:08:34;16.93;;;16.83;;
9270;SDS011;4673;53.458;9.940;2022-11-22T06:11:04;18.73;;;18.63;;
9270;SDS011;4673;53.458;9.940;2022-11-22T06:13:32;17.73;;;17.63;;
9270;SDS011;4673;53.458;9.940;2022-11-22T06:15:59;16.07;;;15.97;;
9270;SDS011;4673;53.458;9.940;2022-11-22T06:18:25;18.13;;;18.03;;
9270;SDS011;4673;53.458;9.940;2022-11-22T06:20:51;17.37;;;17.27;;
9270;SDS011;4673;53.458;9.940;2022-11-22T06:23:16;18.17;;;18.07;;
9270;SDS011;4673;53.458;9.940;2022-11-22T06:25:42;18.60;;;18.50;;
9270;SDS011;4673;53.458;9.940;2022-11-22T06:28:07;18.87;;;18.77;;
9270;SDS011;4673;53.458;9.940;2022-11-22T06:30:33;17.83;;;17.73;;
9270;SDS011;4673;53.458;9.940;2022-11-22T06:32:59;18.60;;;18.50;;
9270;SDS011;4673;53.458;9.940;2022-11-22T06:35:24;18.57;;;18.47;;
9270;SDS011;4673;53.458;9.940;2022-11-22T06:37:50;17.10;;;17.00;;
9270;SDS011;4673;53.458;9.940;2022-11-22T06:40:16;17.67;;;17.57;;
9270;SDS011;4673;53.458;9.940;2022-11-22T06:42:43;18.10;;;18.00;;
9270;SDS011;4673;53.458;9.940;2022-11-22T06:45:08;18.27;;;18.17;;
9270;SDS011;4673;53.458;9.940;2022-11-22T06:47:34;18.63;;;18.53;;
9270;SDS011;4673;53.458;9.940;2022-11-22T06:50:00;17.83;;;17.73;;
9270;SDS011;4673;53.458;9.940;2022-11-22T06:52:26;18.10;;;18.00;;
9270;SDS011;4673;53.458;9.940;2022-11-22T06:54:51;17.23;;;17.13;;
9270;SDS011;4673;53.458;9.940;2022-11-22T06:57:17;18.33;;;18.23;;
9270;SDS011;4673;53.458;9.940;2022-11-22T06:59:44;17.97;;;17.87;;
9270;SDS011;4673;53.458;9.940;2022-11-22T07:02:10;21.07;;;20.97;;
9270;SDS011;4673;53.458;9.940;2022-11-22T07:04:36;18.83;;;18.73;;
9270;SDS011;4673;53.458;9.940;2022-11-22T07:07:02;18.37;;;18.27;;
9270;SDS011;4673;53.458;9.940;2022-11-22T07:09:27;18.67;;;18.57;;
9270;SDS011;4673;53.458;9.940;2022-11-22T07:11:53;18.13;;;18.03;;
9270;SDS011;4673;53.458;9.940;2022-11-22T07:14:19;18.37;;;18.27;;
9270;SDS011;4673;53.458;9.940;2022-11-22T07:16:44;19.13;;;19.03;;
9270;SDS011;4673;53.458;9.940;2022-11-22T07:19:10;20.20;;;20.07;;
9270;SDS011;4673;53.458;9.940;2022-11-22T07:21:36;19.80;;;19.70;;
9270;SDS011;4673;53.458;9.940;2022-11-22T07:24:02;21.40;;;21.30;;
9270;SDS011;4673;53.458;9.940;2022-11-22T07:26:28;19.43;;;19.33;;
9270;SDS011;4673;53.458;9.940;2022-11-22T07:28:54;20.67;;;20.57;;
9270;SDS011;4673;53.458;9.940;2022-11-22T07:31:21;20.23;;;20.13;;
9270;SDS011;4673;53.458;9.940;2022-11-22T07:33:47;19.67;;;19.57;;
9270;SDS011;4673;53.458;9.940;2022-11-22T07:36:16;20.70;;;20.50;;
9270;SDS011;4673;53.458;9.940;2022-11-22T07:38:44;19.60;;;19.43;;
9270;SDS011;4673;53.458;9.940;2022-11-22T07:41:11;19.87;;;19.77;;
9270;SDS011;4673;53.458;9.940;2022-11-22T07:43:38;21.40;;;21.27;;
9270;SDS011;4673;53.458;9.940;2022-11-22T07:46:08;19.50;;;19.40;;
9270;SDS011;4673;53.458;9.940;2022-11-22T07:48:42;19.80;;;19.70;;
9270;SDS011;4673;53.458;9.940;2022-11-22T07:51:08;22.70;;;22.50;;
9270;SDS011;4673;53.458;9.940;2022-11-22T07:53:33;20.67;;;20.50;;
9270;SDS011;4673;53.458;9.940;2022-11-22T07:56:00;21.83;;;21.63;;
9270;SDS011;4673;53.458;9.940;2022-11-22T07:58:27;18.57;;;18.47;;
9270;SDS011;4673;53.458;9.940;2022-11-22T08:00:53;18.90;;;18.80;;
9270;SDS011;4673;53.458;9.940;2022-11-22T08:03:18;19.77;;;19.57;;
9270;SDS011;4673;53.458;9.940;2022-11-22T08:05:44;19.77;;;19.60;;
9270;SDS011;4673;53.458;9.940;2022-11-22T08:08:09;19.27;;;19.07;;
9270;SDS011;4673;53.458;9.940;2022-11-22T08:10:35;20.33;;;20.23;;
9270;SDS011;4673;53.458;9.940;2022-11-22T08:13:01;20.60;;;20.47;;
9270;SDS011;4673;53.458;9.940;2022-11-22T08:15:26;19.57;;;19.47;;
9270;SDS011;4673;53.458;9.940;2022-11-22T08:17:52;19.57;;;19.47;;
9270;SDS011;4673;53.458;9.940;2022-11-22T08:20:18;20.23;;;20.13;;
9270;SDS011;4673;53.458;9.940;2022-11-22T08:22:43;22.53;;;22.33;;
9270;SDS011;4673;53.458;9.940;2022-11-22T08:25:09;19.63;;;19.53;;
9270;SDS011;4673;53.458;9.940;2022-11-22T08:27:41;19.63;;;19.53;;
9270;SDS011;4673;53.458;9.940;2022-11-22T08:30:07;21.27;;;21.07;;
9270;SDS011;4673;53.458;9.940;2022-11-22T08:32:34;22.00;;;21.80;;
9270;SDS011;4673;53.458;9.940;2022-11-22T08:35:00;20.40;;;20.27;;
9270;SDS011;4673;53.458;9.940;2022-11-22T08:37:26;18.43;;;18.33;;
9270;SDS011;4673;53.458;9.940;2022-11-22T08:39:52;20.93;;;20.83;;
9270;SDS011;4673;53.458;9.940;2022-11-22T08:42:18;20.83;;;20.73;;
9270;SDS011;4673;53.458;9.940;2022-11-22T08:44:43;20.60;;;20.50;;
9270;SDS011;4673;53.458;9.940;2022-11-22T08:47:09;20.60;;;20.40;;
9270;SDS011;4673;53.458;9.940;2022-11-22T08:49:34;20.63;;;20.53;;
9270;SDS011;4673;53.458;9.940;2022-11-22T08:52:00;19.07;;;18.97;;
9270;SDS011;4673;53.458;9.940;2022-11-22T08:54:26;18.87;;;18.77;;
9270;SDS011;4673;53.458;9.940;2022-11-22T08:56:51;19.90;;;19.80;;
9270;SDS011;4673;53.458;9.940;2022-11-22T08:59:17;21.27;;;21.10;;
9270;SDS011;4673;53.458;9.940;2022-11-22T09:01:42;20.83;;;20.73;;
9270;SDS011;4673;53.458;9.940;2022-11-22T09:04:08;20.30;;;20.10;;
9270;SDS011;4673;53.458;9.940;2022-11-22T09:06:34;19.00;;;18.90;;
9270;SDS011;4673;53.458;9.940;2022-11-22T09:09:00;19.03;;;18.93;;
9270;SDS011;4673;53.458;9.940;2022-11-22T09:11:25;18.90;;;18.80;;
9270;SDS011;4673;53.458;9.940;2022-11-22T09:13:51;20.20;;;20.10;;
9270;SDS011;4673;53.458;9.940;2022-11-22T09:16:17;20.03;;;19.90;;
9270;SDS011;4673;53.458;9.940;2022-11-22T09:18:44;19.47;;;19.37;;
9270;SDS011;4673;53.458;9.940;2022-11-22T09:21:12;20.97;;;20.87;;
9270;SDS011;4673;53.458;9.940;2022-11-22T09:23:40;20.17;;;19.97;;
9270;SDS011;4673;53.458;9.940;2022-11-22T09:26:08;18.83;;;18.73;;
9270;SDS011;4673;53.458;9.940;2022-11-22T09:28:35;19.53;;;19.43;;
9270;SDS011;4673;53.458;9.940;2022-11-22T09:31:05;21.53;;;21.33;;
9270;SDS011;4673;53.458;9.940;2022-11-22T09:33:33;21.20;;;21.10;;
9270;SDS011;4673;53.458;9.940;2022-11-22T09:36:00;20.03;;;19.93;;
9270;SDS011;4673;53.458;9.940;2022-11-22T09:38:28;20.10;;;20.00;;
9270;SDS011;4673;53.458;9.940;2022-11-22T09:40:55;20.37;;;20.17;;
9270;SDS011;4673;53.458;9.940;2022-11-22T09:46:26;19.67;;;19.50;;
9270;SDS011;4673;53.458;9.940;2022-11-22T09:51:46;18.23;;;18.13;;
9270;SDS011;4673;53.458;9.940;2022-11-22T09:54:18;17.53;;;17.43;;
9270;SDS011;4673;53.458;9.940;2022-11-22T09:56:50;18.73;;;18.63;;
9270;SDS011;4673;53.458;9.940;2022-11-22T09:59:26;18.77;;;18.67;;
9270;SDS011;4673;53.458;9.940;2022-11-22T10:02:16;17.53;;;17.43;;
9270;SDS011;4673;53.458;9.940;2022-11-22T10:04:56;17.50;;;17.40;;
9270;SDS011;4673;53.458;9.940;2022-11-22T10:07:29;18.73;;;18.63;;
9270;SDS011;4673;53.458;9.940;2022-11-22T10:10:02;18.27;;;18.17;;
9270;SDS011;4673;53.458;9.940;2022-11-22T10:15:07;18.60;;;18.50;;
9270;SDS011;4673;53.458;9.940;2022-11-22T10:20:25;18.00;;;17.90;;
9270;SDS011;4673;53.458;9.940;2022-11-22T10:22:53;17.50;;;17.40;;
9270;SDS011;4673;53.458;9.940;2022-11-22T10:28:14;16.57;;;16.47;;
9270;SDS011;4673;53.458;9.940;2022-11-22T10:30:48;16.37;;;16.27;;
9270;SDS011;4673;53.458;9.940;2022-11-22T10:33:22;18.73;;;18.63;;
9270;SDS011;4673;53.458;9.940;2022-11-22T10:38:34;18.03;;;17.93;;
9270;SDS011;4673;53.458;9.940;2022-11-22T10:41:12;18.23;;;18.13;;
9270;SDS011;4673;53.458;9.940;2022-11-22T10:43:48;16.70;;;16.60;;
9270;SDS011;4673;53.458;9.940;2022-11-22T10:49:01;17.83;;;17.73;;
9270;SDS011;4673;53.458;9.940;2022-11-22T10:51:55;19.23;;;19.13;;
9270;SDS011;4673;53.458;9.940;2022-11-22T10:54:37;17.30;;;17.20;;
9270;SDS011;4673;53.458;9.940;2022-11-22T11:00:02;15.83;;;15.73;;
9270;SDS011;4673;53.458;9.940;2022-11-22T11:05:11;16.87;;;16.77;;
9270;SDS011;4673;53.458;9.940;2022-11-22T11:07:42;16.07;;;15.97;;
9270;SDS011;4673;53.458;9.940;2022-11-22T11:10:16;15.67;;;15.57;;
9270;SDS011;4673;53.458;9.940;2022-11-22T11:12:45;16.63;;;16.53;;
9270;SDS011;4673;53.458;9.940;2022-11-22T11:15:20;15.97;;;15.87;;
9270;SDS011;4673;53.458;9.940;2022-11-22T11:18:04;15.43;;;15.33;;
9270;SDS011;4673;53.458;9.940;2022-11-22T11:20:42;16.50;;;16.40;;
9270;SDS011;4673;53.458;9.940;2022-11-22T11:23:11;16.07;;;15.97;;
9270;SDS011;4673;53.458;9.940;2022-11-22T11:25:39;16.73;;;16.63;;
9270;SDS011;4673;53.458;9.940;2022-11-22T11:28:28;17.00;;;16.90;;
9270;SDS011;4673;53.458;9.940;2022-11-22T11:31:09;16.30;;;16.20;;
9270;SDS011;4673;53.458;9.940;2022-11-22T11:33:37;17.60;;;17.50;;
9270;SDS011;4673;53.458;9.940;2022-11-22T11:36:08;16.90;;;16.80;;
9270;SDS011;4673;53.458;9.940;2022-11-22T11:43:57;17.10;;;17.00;;
9270;SDS011;4673;53.458;9.940;2022-11-22T11:46:29;17.80;;;17.70;;
9270;SDS011;4673;53.458;9.940;2022-11-22T11:51:38;19.13;;;19.03;;
9270;SDS011;4673;53.458;9.940;2022-11-22T11:54:08;18.27;;;18.17;;
9270;SDS011;4673;53.458;9.940;2022-11-22T11:59:48;17.60;;;17.50;;
9270;SDS011;4673;53.458;9.940;2022-11-22T12:05:05;18.00;;;17.90;;
9270;SDS011;4673;53.458;9.940;2022-11-22T12:10:00;19.30;;;19.20;;
9270;SDS011;4673;53.458;9.940;2022-11-22T12:15:02;19.47;;;19.37;;
9270;SDS011;4673;53.458;9.940;2022-11-22T12:17:42;20.10;;;20.00;;
9270;SDS011;4673;53.458;9.940;2022-11-22T12:20:16;19.53;;;19.43;;
9270;SDS011;4673;53.458;9.940;2022-11-22T12:25:32;19.53;;;19.33;;
9270;SDS011;4673;53.458;9.940;2022-11-22T12:28:02;19.87;;;19.77;;
9270;SDS011;4673;53.458;9.940;2022-11-22T12:30:42;18.90;;;18.80;;
9270;SDS011;4673;53.458;9.940;2022-11-22T12:33:14;20.10;;;20.00;;
9270;SDS011;4673;53.458;9.940;2022-11-22T12:35:44;19.03;;;18.93;;
9270;SDS011;4673;53.458;9.940;2022-11-22T12:40:48;19.33;;;19.23;;
9270;SDS011;4673;53.458;9.940;2022-11-22T12:43:19;19.57;;;19.47;;
9270;SDS011;4673;53.458;9.940;2022-11-22T12:45:49;19.73;;;19.63;;
9270;SDS011;4673;53.458;9.940;2022-11-22T12:48:20;18.37;;;18.27;;
9270;SDS011;4673;53.458;9.940;2022-11-22T12:50:52;17.87;;;17.77;;
9270;SDS011;4673;53.458;9.940;2022-11-22T12:53:29;19.60;;;19.50;;
9270;SDS011;4673;53.458;9.940;2022-11-22T12:58:40;19.90;;;19.80;;
9270;SDS011;4673;53.458;9.940;2022-11-22T13:01:29;18.37;;;18.27;;
9270;SDS011;4673;53.458;9.940;2022-11-22T13:06:43;18.20;;;18.10;;
9270;SDS011;4673;53.458;9.940;2022-11-22T13:09:16;19.70;;;19.60;;
9270;SDS011;4673;53.458;9.940;2022-11-22T13:11:48;19.07;;;18.97;;
9270;SDS011;4673;53.458;9.940;2022-11-22T13:14:25;19.13;;;19.03;;
9270;SDS011;4673;53.458;9.940;2022-11-22T13:17:19;18.60;;;18.50;;
9270;SDS011;4673;53.458;9.940;2022-11-22T13:19:48;18.43;;;18.33;;
9270;SDS011;4673;53.458;9.940;2022-11-22T13:28:14;18.07;;;17.97;;
9270;SDS011;4673;53.458;9.940;2022-11-22T13:33:56;17.73;;;17.63;;
9270;SDS011;4673;53.458;9.940;2022-11-22T13:38:57;17.83;;;17.73;;
9270;SDS011;4673;53.458;9.940;2022-11-22T13:41:50;18.10;;;18.00;;
9270;SDS011;4673;53.458;9.940;2022-11-22T13:51:59;18.70;;;18.60;;
9270;SDS011;4673;53.458;9.940;2022-11-22T14:02:52;17.87;;;17.77;;
9270;SDS011;4673;53.458;9.940;2022-11-22T14:05:38;16.57;;;16.47;;
9270;SDS011;4673;53.458;9.940;2022-11-22T14:08:17;18.33;;;18.23;;
9270;SDS011;4673;53.458;9.940;2022-11-22T14:22:16;19.73;;;19.53;;
9270;SDS011;4673;53.458;9.940;2022-11-22T14:30:22;18.83;;;18.73;;
9270;SDS011;4673;53.458;9.940;2022-11-22T14:33:25;20.23;;;20.13;;
9270;SDS011;4673;53.458;9.940;2022-11-22T14:38:33;18.37;;;18.27;;
9270;SDS011;4673;53.458;9.940;2022-11-22T14:43:52;19.10;;;19.00;;
9270;SDS011;4673;53.458;9.940;2022-11-22T14:46:30;18.97;;;18.80;;
9270;SDS011;4673;53.458;9.940;2022-11-22T14:49:20;19.83;;;19.67;;
9270;SDS011;4673;53.458;9.940;2022-11-22T14:51:51;18.53;;;18.43;;
9270;SDS011;4673;53.458;9.940;2022-11-22T14:54:22;19.43;;;19.33;;
9270;SDS011;4673;53.458;9.940;2022-11-22T14:56:52;20.00;;;19.80;;
9270;SDS011;4673;53.458;9.940;2022-11-22T15:13:24;19.83;;;19.63;;
9270;SDS011;4673;53.458;9.940;2022-11-22T15:15:53;19.20;;;19.10;;
9270;SDS011;4673;53.458;9.940;2022-11-22T15:18:23;19.60;;;19.50;;
9270;SDS011;4673;53.458;9.940;2022-11-22T15:20:56;19.27;;;19.07;;
9270;SDS011;4673;53.458;9.940;2022-11-22T15:23:26;20.43;;;20.23;;
9270;SDS011;4673;53.458;9.940;2022-11-22T15:25:59;19.47;;;19.37;;
9270;SDS011;4673;53.458;9.940;2022-11-22T15:28:26;18.90;;;18.80;;
9270;SDS011;4673;53.458;9.940;2022-11-22T15:30:55;20.97;;;20.77;;
9270;SDS011;4673;53.458;9.940;2022-11-22T15:36:06;20.50;;;20.30;;
9270;SDS011;4673;53.458;9.940;2022-11-22T15:38:35;20.93;;;20.80;;
9270;SDS011;4673;53.458;9.940;2022-11-22T15:41:05;20.73;;;20.57;;
9270;SDS011;4673;53.458;9.940;2022-11-22T15:43:31;20.77;;;20.57;;
9270;SDS011;4673;53.458;9.940;2022-11-22T15:45:56;22.20;;;22.00;;
9270;SDS011;4673;53.458;9.940;2022-11-22T15:48:27;22.27;;;22.10;;
9270;SDS011;4673;53.458;9.940;2022-11-22T15:53:33;21.83;;;21.63;;
9270;SDS011;4673;53.458;9.940;2022-11-22T15:58:40;22.17;;;21.97;;
9270;SDS011;4673;53.458;9.940;2022-11-22T16:01:11;21.07;;;20.93;;
9270;SDS011;4673;53.458;9.940;2022-11-22T16:03:40;22.03;;;21.83;;
9270;SDS011;4673;53.458;9.940;2022-11-22T16:06:17;21.33;;;21.13;;
9270;SDS011;4673;53.458;9.940;2022-11-22T16:08:54;20.87;;;20.67;;
9270;SDS011;4673;53.458;9.940;2022-11-22T16:11:26;21.97;;;21.77;;
9270;SDS011;4673;53.458;9.940;2022-11-22T16:13:58;21.97;;;21.77;;
9270;SDS011;4673;53.458;9.940;2022-11-22T16:16:25;22.37;;;22.17;;
9270;SDS011;4673;53.458;9.940;2022-11-22T16:22:28;24.97;;;24.77;;
9270;SDS011;4673;53.458;9.940;2022-11-22T16:28:20;21.30;;;21.10;;
9270;SDS011;4673;53.458;9.940;2022-11-22T16:31:00;22.17;;;21.97;;
9270;SDS011;4673;53.458;9.940;2022-11-22T16:33:47;20.40;;;20.20;;
9270;SDS011;4673;53.458;9.940;2022-11-22T16:36:14;21.53;;;21.33;;
9270;SDS011;4673;53.458;9.940;2022-11-22T16:38:41;21.77;;;21.57;;
9270;SDS011;4673;53.458;9.940;2022-11-22T16:41:12;23.43;;;23.23;;
9270;SDS011;4673;53.458;9.940;2022-11-22T16:43:52;24.17;;;23.97;;
9270;SDS011;4673;53.458;9.940;2022-11-22T16:46:20;20.93;;;20.83;;
9270;SDS011;4673;53.458;9.940;2022-11-22T16:48:46;25.67;;;25.47;;
9270;SDS011;4673;53.458;9.940;2022-11-22T16:51:13;22.50;;;22.30;;
9270;SDS011;4673;53.458;9.940;2022-11-22T16:53:42;22.33;;;22.20;;
9270;SDS011;4673;53.458;9.940;2022-11-22T16:56:16;24.90;;;24.70;;
9270;SDS011;4673;53.458;9.940;2022-11-22T16:58:50;21.43;;;21.23;;
9270;SDS011;4673;53.458;9.940;2022-11-22T17:01:18;23.30;;;23.10;;
9270;SDS011;4673;53.458;9.940;2022-11-22T17:03:46;20.93;;;20.73;;
9270;SDS011;4673;53.458;9.940;2022-11-22T17:06:23;22.33;;;22.13;;
9270;SDS011;4673;53.458;9.940;2022-11-22T17:08:51;22.37;;;22.17;;
9270;SDS011;4673;53.458;9.940;2022-11-22T17:11:19;19.63;;;19.53;;
9270;SDS011;4673;53.458;9.940;2022-11-22T17:13:46;19.63;;;19.53;;
9270;SDS011;4673;53.458;9.940;2022-11-22T17:16:12;23.20;;;23.00;;